createdAt,value
2023-05-08T00:01:50.648Z,2.83
2023-05-08T00:04:57.010Z,1.70
2023-05-08T00:08:04.197Z,1.72
2023-05-08T00:11:10.348Z,1.75
2023-05-08T00:14:15.848Z,1.70
2023-05-08T00:17:22.045Z,1.62
2023-05-08T00:20:27.218Z,1.40
2023-05-08T00:23:32.723Z,1.45
2023-05-08T00:26:38.062Z,1.60
2023-05-08T00:29:43.387Z,1.92
2023-05-08T00:32:48.959Z,1.47
2023-05-08T00:35:54.877Z,1.50
2023-05-08T00:39:00.334Z,1.60
2023-05-08T00:42:05.985Z,1.50
2023-05-08T00:45:11.168Z,2.00
2023-05-08T00:48:17.300Z,1.90
2023-05-08T00:51:23.435Z,1.52
2023-05-08T00:54:23.243Z,1.60
2023-05-08T00:57:15.849Z,1.50
2023-05-08T01:00:21.634Z,1.98
2023-05-08T01:03:27.890Z,1.52
2023-05-08T01:06:35.049Z,2.08
2023-05-08T01:09:40.927Z,1.37
2023-05-08T01:13:00.045Z,1.40
2023-05-08T01:16:16.558Z,1.70
2023-05-08T01:19:54.707Z,1.55
2023-05-08T01:23:14.613Z,1.85
2023-05-08T01:26:28.451Z,1.50
2023-05-08T01:29:43.435Z,1.95
2023-05-08T01:32:55.205Z,1.62
2023-05-08T01:36:04.891Z,1.70
2023-05-08T01:39:49.598Z,1.60
2023-05-08T01:43:22.731Z,1.65
2023-05-08T01:46:33.792Z,1.80
2023-05-08T01:49:42.887Z,1.65
2023-05-08T01:53:02.526Z,2.00
2023-05-08T01:56:12.732Z,1.77
2023-05-08T01:59:17.939Z,1.67
2023-05-08T02:02:24.269Z,1.55
2023-05-08T02:05:29.643Z,1.80
2023-05-08T02:08:35.149Z,1.62
2023-05-08T02:11:41.215Z,1.80
2023-05-08T02:14:48.990Z,1.50
2023-05-08T02:17:56.152Z,1.95
2023-05-08T02:21:03.693Z,1.85
2023-05-08T02:24:03.978Z,1.70
2023-05-08T02:27:09.235Z,1.50
2023-05-08T02:30:14.058Z,2.15
2023-05-08T02:33:19.783Z,1.80
2023-05-08T02:36:27.330Z,1.92
2023-05-08T02:39:32.304Z,1.77
2023-05-08T02:42:37.127Z,1.85
2023-05-08T02:45:44.932Z,1.85
2023-05-08T02:49:12.632Z,1.70
2023-05-08T02:52:31.821Z,1.77
2023-05-08T02:56:04.848Z,1.67
2023-05-08T02:59:30.319Z,1.87
2023-05-08T03:02:52.141Z,1.50
2023-05-08T03:06:06.912Z,1.60
2023-05-08T03:09:11.552Z,1.62
2023-05-08T03:12:19.736Z,1.95
2023-05-08T03:15:32.559Z,1.85
2023-05-08T03:18:49.005Z,1.42
2023-05-08T03:21:54.088Z,1.60
2023-05-08T03:25:00.720Z,1.55
2023-05-08T03:28:07.899Z,1.60
2023-05-08T03:31:14.617Z,1.62
2023-05-08T03:34:21.563Z,1.87
2023-05-08T03:37:28.210Z,1.42
2023-05-08T03:40:33.442Z,1.80
2023-05-08T03:43:39.692Z,1.27
2023-05-08T03:46:39.692Z,1.90
2023-05-08T03:49:46.541Z,1.50
2023-05-08T03:52:53.432Z,1.60
2023-05-08T03:55:58.426Z,1.60
2023-05-08T03:59:17.341Z,1.42
2023-05-08T04:02:42.229Z,1.70
2023-05-08T04:05:51.487Z,1.77
2023-05-08T04:09:06.168Z,1.90
2023-05-08T04:12:29.238Z,1.52
2023-05-08T04:15:44.015Z,1.80
2023-05-08T04:18:51.822Z,1.52
2023-05-08T04:21:58.829Z,1.32
2023-05-08T04:25:05.139Z,1.55
2023-05-08T04:28:10.692Z,1.85
2023-05-08T04:31:15.586Z,1.72
2023-05-08T04:34:21.838Z,1.62
2023-05-08T04:37:43.409Z,1.82
2023-05-08T04:40:49.683Z,1.65
2023-05-08T04:43:48.903Z,1.90
2023-05-08T04:46:57.072Z,1.40
2023-05-08T04:50:02.826Z,1.70
2023-05-08T04:53:09.819Z,2.52
2023-05-08T04:56:16.559Z,1.60
2023-05-08T04:59:22.106Z,1.85
2023-05-08T05:02:26.717Z,1.60
2023-05-08T05:05:32.015Z,1.52
2023-05-08T05:08:38.861Z,1.82
2023-05-08T05:11:44.708Z,1.82
2023-05-08T05:14:51.192Z,1.75
2023-05-08T05:18:00.463Z,1.70
2023-05-08T05:21:05.934Z,2.50
2023-05-08T05:24:12.501Z,1.72
2023-05-08T05:27:19.279Z,1.60
2023-05-08T05:30:25.439Z,2.08
2023-05-08T05:33:31.102Z,1.80
2023-05-08T05:36:36.360Z,1.80
2023-05-08T05:39:44.925Z,1.70
2023-05-08T05:42:52.384Z,1.80
2023-05-08T05:45:59.820Z,1.30
2023-05-08T05:49:06.196Z,2.00
2023-05-08T05:52:12.548Z,1.85
2023-05-08T05:55:17.560Z,1.80
2023-05-08T05:58:23.719Z,1.60
2023-05-08T06:01:31.655Z,1.57
2023-05-08T06:04:37.183Z,1.60
2023-05-08T06:07:43.761Z,3.22
2023-05-08T06:10:49.413Z,1.90
2023-05-08T06:13:56.503Z,1.85
2023-05-08T06:17:02.753Z,1.20
2023-05-08T06:20:09.136Z,1.50
2023-05-08T06:23:14.500Z,1.80
2023-05-08T06:26:22.725Z,1.75
2023-05-08T06:29:26.648Z,1.40
2023-05-08T06:32:32.341Z,1.37
2023-05-08T06:35:38.139Z,1.40
2023-05-08T06:38:44.756Z,1.40
2023-05-08T06:41:50.961Z,1.30
2023-05-08T06:45:00.906Z,1.42
2023-05-08T06:47:59.635Z,1.70
2023-05-08T06:51:06.504Z,1.50
2023-05-08T06:54:14.582Z,1.65
2023-05-08T06:57:21.409Z,1.50
2023-05-08T07:00:27.721Z,1.40
2023-05-08T07:03:33.113Z,1.87
2023-05-08T07:06:39.823Z,1.65
2023-05-08T07:09:45.731Z,1.50
2023-05-08T07:12:54.800Z,1.30
2023-05-08T07:15:59.472Z,1.45
2023-05-08T07:19:04.692Z,1.45
2023-05-08T07:22:12.175Z,2.00
2023-05-08T07:25:19.707Z,1.40
2023-05-08T07:28:25.972Z,1.77
2023-05-08T07:31:31.357Z,1.75
2023-05-08T07:34:37.271Z,1.50
2023-05-08T07:37:42.454Z,1.50
2023-05-08T07:40:47.532Z,1.50
2023-05-08T07:43:53.502Z,1.70
2023-05-08T07:46:59.850Z,1.30
2023-05-08T07:50:04.654Z,1.77
2023-05-08T07:53:10.997Z,1.75
2023-05-08T07:56:17.629Z,1.57
2023-05-08T07:59:23.218Z,1.32
2023-05-08T08:02:31.406Z,1.40
2023-05-08T08:05:37.912Z,2.22
2023-05-08T08:08:37.271Z,1.70
2023-05-08T08:11:24.512Z,2.00
2023-05-08T08:14:18.199Z,1.60
2023-05-08T08:17:20.192Z,2.12
2023-05-08T08:20:26.509Z,1.90
2023-05-08T08:23:33.364Z,1.62
2023-05-08T08:26:44.149Z,1.85
2023-05-08T08:29:49.776Z,1.50
2023-05-08T08:32:56.033Z,1.98
2023-05-08T08:36:02.579Z,1.77
2023-05-08T08:39:10.995Z,1.82
2023-05-08T08:42:16.076Z,1.70
2023-05-08T08:45:22.653Z,1.70
2023-05-08T08:48:28.659Z,1.30
2023-05-08T08:52:10.539Z,1.52
2023-05-08T08:55:16.821Z,1.60
2023-05-08T08:58:47.661Z,1.65
2023-05-08T09:01:58.260Z,1.50
2023-05-08T09:05:05.398Z,1.72
2023-05-08T09:08:11.862Z,1.98
2023-05-08T09:11:22.073Z,1.70
2023-05-08T09:14:27.911Z,1.62
2023-05-08T09:17:32.881Z,1.90
2023-05-08T09:20:39.234Z,2.00
2023-05-08T09:23:37.966Z,1.80
2023-05-08T09:26:50.324Z,1.80
2023-05-08T09:32:38.221Z,1.87
2023-05-08T09:35:52.490Z,1.75
2023-05-08T09:38:58.536Z,1.60
2023-05-08T09:42:17.180Z,1.77
2023-05-08T09:45:25.532Z,2.00
2023-05-08T09:48:30.607Z,1.60
2023-05-08T09:51:39.437Z,1.60
2023-05-08T09:54:45.894Z,1.87
2023-05-08T09:57:55.546Z,1.42
2023-05-08T10:01:01.168Z,1.92
2023-05-08T10:03:59.688Z,2.02
2023-05-08T10:07:14.306Z,1.75
2023-05-08T10:10:21.473Z,1.52
2023-05-08T10:13:28.622Z,1.55
2023-05-08T10:16:34.116Z,1.50
2023-05-08T10:19:29.831Z,1.35
2023-05-08T10:22:34.895Z,1.50
2023-05-08T10:25:40.799Z,1.52
2023-05-08T10:29:22.576Z,1.50
2023-05-08T10:32:28.284Z,1.52
2023-05-08T10:35:33.976Z,1.80
2023-05-08T10:38:41.180Z,1.57
2023-05-08T10:41:46.877Z,1.90
2023-05-08T10:44:53.459Z,1.37
2023-05-08T10:48:19.174Z,1.20
2023-05-08T10:51:31.667Z,1.27
2023-05-08T10:55:25.039Z,1.45
2023-05-08T10:58:39.459Z,1.87
2023-05-08T11:01:44.361Z,1.67
2023-05-08T11:04:50.783Z,1.47
2023-05-08T11:08:14.154Z,1.32
2023-05-08T11:11:26.799Z,1.65
2023-05-08T11:14:32.762Z,1.32
2023-05-08T11:17:39.559Z,1.62
2023-05-08T11:21:15.421Z,1.42
2023-05-08T11:24:26.638Z,1.57
2023-05-08T11:27:31.854Z,1.47
2023-05-08T11:30:50.827Z,1.50
2023-05-08T11:33:56.742Z,1.60
2023-05-08T11:37:16.639Z,1.82
2023-05-08T11:43:43.338Z,1.15
2023-05-08T11:46:57.379Z,1.27
2023-05-08T11:50:02.969Z,1.42
2023-05-08T11:53:08.428Z,1.40
2023-05-08T11:56:15.087Z,1.35
2023-05-08T11:59:21.890Z,1.60
2023-05-08T12:02:28.419Z,1.35
2023-05-08T12:05:42.040Z,1.25
2023-05-08T12:08:47.571Z,1.50
2023-05-08T12:11:54.420Z,1.22
2023-05-08T12:15:05.804Z,1.70
2023-05-08T12:21:22.264Z,1.95
2023-05-08T12:24:29.973Z,1.60
2023-05-08T12:27:35.297Z,1.50
2023-05-08T12:30:40.995Z,1.32
2023-05-08T12:33:47.795Z,1.20
2023-05-08T12:36:53.847Z,1.57
2023-05-08T12:39:59.587Z,1.30
2023-05-08T12:43:05.392Z,1.40
2023-05-08T12:46:10.653Z,1.30
2023-05-08T12:49:18.244Z,1.47
2023-05-08T12:52:25.897Z,1.60
2023-05-08T12:55:41.266Z,1.05
2023-05-08T12:58:48.723Z,1.50
2023-05-08T13:01:53.497Z,1.45
2023-05-08T13:04:59.017Z,1.40
2023-05-08T13:08:06.111Z,1.35
2023-05-08T13:11:12.638Z,1.67
2023-05-08T13:14:18.060Z,1.65
2023-05-08T13:17:23.376Z,1.80
2023-05-08T13:20:29.967Z,1.10
2023-05-08T13:23:35.305Z,1.35
2023-05-08T13:26:40.856Z,1.60
2023-05-08T13:29:47.453Z,1.65
2023-05-08T13:32:54.843Z,1.45
2023-05-08T13:36:00.832Z,1.37
2023-05-08T13:39:06.235Z,1.50
2023-05-08T13:42:13.511Z,1.55
2023-05-08T13:45:15.815Z,1.50
2023-05-08T13:48:20.820Z,1.30
2023-05-08T13:51:26.859Z,2.15
2023-05-08T13:54:32.641Z,1.62
2023-05-08T13:57:38.372Z,1.52
2023-05-08T14:00:43.650Z,1.80
2023-05-08T14:03:50.123Z,1.60
2023-05-08T14:06:56.320Z,1.55
2023-05-08T14:10:02.152Z,1.47
2023-05-08T14:13:07.956Z,1.40
2023-05-08T14:16:14.831Z,1.17
2023-05-08T14:19:21.335Z,1.65
2023-05-08T14:22:26.706Z,1.70
2023-05-08T14:25:31.718Z,2.40
2023-05-08T14:28:37.486Z,1.45
2023-05-08T14:31:42.474Z,1.50
2023-05-08T14:34:47.629Z,1.87
2023-05-08T14:37:53.471Z,2.58
2023-05-08T14:41:00.238Z,1.80
2023-05-08T14:44:06.559Z,1.57
2023-05-08T14:47:23.997Z,1.82
2023-05-08T14:50:34.530Z,1.50
2023-05-08T14:53:40.633Z,1.65
2023-05-08T14:56:47.859Z,1.95
2023-05-08T14:59:55.248Z,1.57
2023-05-08T15:03:00.548Z,2.12
2023-05-08T15:06:06.170Z,2.55
2023-05-08T15:09:12.029Z,1.98
2023-05-08T15:12:10.311Z,1.77
2023-05-08T15:15:17.180Z,2.10
2023-05-08T15:18:22.115Z,2.05
2023-05-08T15:21:29.659Z,2.02
2023-05-08T15:24:35.272Z,2.65
2023-05-08T15:27:41.098Z,2.80
2023-05-08T15:30:47.107Z,2.55
2023-05-08T15:33:55.150Z,2.30
2023-05-08T15:37:01.860Z,2.72
2023-05-08T15:40:06.928Z,2.67
2023-05-08T15:43:12.532Z,2.80
2023-05-08T15:46:17.263Z,2.37
2023-05-08T15:49:23.066Z,2.62
2023-05-08T15:52:29.729Z,2.85
2023-05-08T15:55:35.188Z,3.00
2023-05-08T15:58:41.905Z,3.08
2023-05-08T16:01:49.835Z,2.85
2023-05-08T16:04:56.472Z,2.75
2023-05-08T16:08:02.190Z,2.20
2023-05-08T16:11:09.220Z,2.67
2023-05-08T16:14:14.825Z,2.70
2023-05-08T16:17:12.747Z,2.25
2023-05-08T16:20:19.220Z,2.25
2023-05-08T16:23:24.886Z,2.60
2023-05-08T16:26:31.129Z,2.60
2023-05-08T16:29:36.295Z,3.22
2023-05-08T16:32:43.006Z,2.25
2023-05-08T16:35:48.582Z,2.83
2023-05-08T16:38:55.338Z,3.00
2023-05-08T16:42:02.990Z,2.98
2023-05-08T16:45:13.455Z,3.40
2023-05-08T16:48:21.641Z,3.33
2023-05-08T16:51:28.511Z,4.28
2023-05-08T16:54:34.912Z,3.35
2023-05-08T16:57:40.410Z,3.35
2023-05-08T17:00:45.933Z,3.42
2023-05-08T17:03:44.401Z,2.70
2023-05-08T17:06:50.385Z,3.47
2023-05-08T17:09:57.707Z,3.10
2023-05-08T17:13:02.288Z,3.35
2023-05-08T17:16:09.797Z,3.47
2023-05-08T17:19:08.429Z,3.08
2023-05-08T17:22:14.169Z,3.37
2023-05-08T17:25:19.256Z,3.58
2023-05-08T17:28:28.271Z,4.22
2023-05-08T17:31:34.525Z,5.47
2023-05-08T17:34:40.915Z,5.20
2023-05-08T17:37:46.221Z,4.10
2023-05-08T17:40:51.738Z,32.78
2023-05-08T17:43:58.376Z,22.85
2023-05-08T17:47:03.239Z,8.23
2023-05-08T17:50:08.221Z,9.68
2023-05-08T17:53:13.926Z,9.95
2023-05-08T17:56:20.699Z,4.75
2023-05-08T17:59:26.612Z,3.77
2023-05-08T18:02:33.539Z,3.80
2023-05-08T18:05:38.982Z,5.08
2023-05-08T18:08:45.591Z,3.87
2023-05-08T18:11:51.785Z,4.28
2023-05-08T18:14:57.426Z,5.28
2023-05-08T18:18:05.347Z,5.83
2023-05-08T18:21:12.097Z,6.95
2023-05-08T18:24:17.877Z,5.67
2023-05-08T18:27:23.559Z,4.97
2023-05-08T18:30:22.608Z,4.60
2023-05-08T18:33:28.173Z,3.98
2023-05-08T18:36:33.976Z,4.00
2023-05-08T18:39:39.397Z,3.65
2023-05-08T18:42:44.926Z,4.15
2023-05-08T18:45:55.521Z,5.67
2023-05-08T18:49:01.518Z,4.67
2023-05-08T18:52:07.620Z,4.47
2023-05-08T18:55:13.545Z,4.30
2023-05-08T18:58:18.873Z,3.55
2023-05-08T19:01:28.565Z,3.65
2023-05-08T19:04:33.743Z,3.80
2023-05-08T19:07:40.050Z,3.95
2023-05-08T19:10:46.829Z,4.05
2023-05-08T19:13:52.609Z,4.55
2023-05-08T19:16:58.726Z,4.58
2023-05-08T19:20:04.818Z,3.80
2023-05-08T19:23:09.804Z,4.03
2023-05-08T19:26:16.432Z,4.15
2023-05-08T19:29:21.643Z,3.50
2023-05-08T19:32:27.271Z,3.00
2023-05-08T19:35:33.353Z,2.20
2023-05-08T19:38:39.864Z,2.45
2023-05-08T19:41:46.649Z,2.05
2023-05-08T19:44:53.391Z,2.15
2023-05-08T19:48:08.197Z,1.70
2023-05-08T19:51:10.899Z,1.82
2023-05-08T19:54:17.591Z,1.40
2023-05-08T19:57:22.681Z,1.62
2023-05-08T20:00:29.666Z,1.82
2023-05-08T20:03:35.293Z,1.90
2023-05-08T20:06:40.566Z,2.33
2023-05-08T20:09:46.074Z,2.47
2023-05-08T20:12:51.740Z,2.50
2023-05-08T20:15:57.339Z,2.10
2023-05-08T20:19:03.380Z,2.60
2023-05-08T20:22:09.227Z,2.10
2023-05-08T20:25:14.842Z,1.77
2023-05-08T20:28:20.131Z,2.52
2023-05-08T20:31:25.568Z,1.95
2023-05-08T20:34:32.136Z,1.37
2023-05-08T20:37:37.817Z,1.60
2023-05-08T20:40:43.798Z,1.67
2023-05-08T20:43:48.986Z,1.37
2023-05-08T20:46:49.049Z,1.70
2023-05-08T20:49:55.154Z,2.13
2023-05-08T20:53:00.691Z,1.50
2023-05-08T20:56:06.170Z,1.77
2023-05-08T20:59:12.076Z,1.47
2023-05-08T21:02:18.539Z,1.50
2023-05-08T21:05:24.042Z,1.47
2023-05-08T21:08:57.967Z,1.20
2023-05-08T21:12:21.638Z,1.40
2023-05-08T21:15:26.848Z,1.52
2023-05-08T21:18:32.869Z,1.10
2023-05-08T21:21:38.939Z,1.60
2023-05-08T21:24:45.982Z,1.30
2023-05-08T21:27:53.378Z,1.82
2023-05-08T21:31:00.486Z,1.25
2023-05-08T21:34:25.031Z,1.40
2023-05-08T21:37:48.771Z,1.42
2023-05-08T21:40:54.720Z,1.65
2023-05-08T21:44:00.522Z,1.95
2023-05-08T21:47:09.608Z,1.40
2023-05-08T21:50:15.456Z,1.10
2023-05-08T21:53:21.226Z,1.27
2023-05-08T21:56:26.224Z,1.37
2023-05-08T21:59:32.885Z,1.30
2023-05-08T22:02:38.431Z,1.50
2023-05-08T22:05:45.456Z,1.50
2023-05-08T22:08:50.271Z,1.40
2023-05-08T22:11:56.492Z,1.37
2023-05-08T22:15:01.912Z,1.07
2023-05-08T22:18:09.163Z,1.77
2023-05-08T22:21:14.024Z,1.47
2023-05-08T22:24:22.287Z,1.20
2023-05-08T22:27:27.503Z,1.10
2023-05-08T22:30:33.392Z,1.30
2023-05-08T22:33:41.075Z,1.70
2023-05-08T22:36:47.801Z,1.00
2023-05-08T22:39:53.071Z,1.47
2023-05-08T22:42:58.611Z,1.17
2023-05-08T22:46:04.253Z,1.77
2023-05-08T22:49:10.775Z,1.37
2023-05-08T22:52:15.964Z,1.40
2023-05-08T22:55:22.587Z,1.82
2023-05-08T22:58:28.364Z,1.50
2023-05-08T23:01:35.515Z,1.55
2023-05-08T23:04:40.779Z,1.60
2023-05-08T23:07:45.600Z,1.50
2023-05-08T23:10:51.313Z,1.87
2023-05-08T23:13:57.604Z,1.65
2023-05-08T23:17:03.114Z,1.75
2023-05-08T23:20:08.175Z,1.40
2023-05-08T23:23:13.636Z,1.52
2023-05-08T23:26:19.090Z,1.60
2023-05-08T23:29:24.402Z,1.42
2023-05-08T23:32:29.988Z,1.52
2023-05-08T23:35:36.336Z,1.40
2023-05-08T23:38:41.959Z,1.60
2023-05-08T23:41:46.651Z,1.47
2023-05-08T23:44:52.544Z,1.80
2023-05-08T23:47:59.452Z,1.50
2023-05-08T23:51:04.412Z,1.60
2023-05-08T23:54:09.896Z,1.50
2023-05-08T23:57:15.939Z,1.80
